Time;durP1;ratioP1;P1;durP2;ratioP2;P2;SDS_P1;SDS_P2;PMS_P1;PMS_P2;Temp;Humidity;BMP_temperature;BMP_pressure;BME280_temperature;BME280_humidity;BME280_pressure;Samples;Min_cycle;Max_cycle;Signal;HPM_P1;HPM_P2
2022/06/01 00:01:20;;;;;;;4.20;3.90;;;13.20;99.90;;;;;;4928573;28;20511;-88
2022/06/01 00:03:46;;;;;;;4.20;3.80;;;13.20;99.90;;;;;;4934647;28;20450;-88
2022/06/01 00:06:12;;;;;;;4.03;3.70;;;13.00;99.90;;;;;;4935290;28;20872;-88
2022/06/01 00:08:38;;;;;;;4.23;3.93;;;13.00;99.90;;;;;;4939190;28;20677;-88
2022/06/01 00:11:04;;;;;;;3.80;3.50;;;13.00;99.90;;;;;;4933612;28;20529;-88
2022/06/01 00:13:30;;;;;;;4.73;4.33;;;13.00;99.90;;;;;;4943738;28;20469;-87
2022/06/01 00:15:56;;;;;;;4.97;4.50;;;13.00;99.90;;;;;;4957282;28;20472;-87
2022/06/01 00:18:23;;;;;;;4.93;4.63;;;13.00;99.90;;;;;;4933076;28;20438;-88
2022/06/01 00:20:50;;;;;;;6.80;4.00;;;13.00;99.90;;;;;;4931184;28;20450;-88
2022/06/01 00:23:16;;;;;;;4.00;3.70;;;13.00;99.90;;;;;;4937701;28;20475;-88
2022/06/01 00:25:42;;;;;;;5.47;3.97;;;13.00;99.90;;;;;;4967771;28;20483;-90
2022/06/01 00:28:08;;;;;;;4.17;3.87;;;13.00;99.90;;;;;;4946046;28;20440;-87
2022/06/01 00:30:34;;;;;;;4.27;3.87;;;13.00;99.90;;;;;;4938985;28;20669;-88
2022/06/01 00:33:07;;;;;;;4.40;4.10;;;12.90;99.90;;;;;;4947976;28;20199;-88
2022/06/01 00:35:32;;;;;;;4.70;4.30;;;12.90;99.90;;;;;;4947690;28;20512;-88
2022/06/01 00:38:01;;;;;;;4.03;3.73;;;13.50;99.90;;;;;;4934892;28;20434;-89
2022/06/01 00:40:28;;;;;;;4.80;4.40;;;12.80;99.90;;;;;;4936742;28;20187;-89
2022/06/01 00:42:57;;;;;;;4.47;4.17;;;12.80;99.90;;;;;;4933293;28;20458;-88
2022/06/01 00:45:25;;;;;;;4.40;4.07;;;13.10;99.90;;;;;;4931462;28;20474;-88
2022/06/01 00:47:56;;;;;;;4.43;4.10;;;13.00;99.90;;;;;;4968144;28;21087;-87
2022/06/01 00:50:30;;;;;;;4.20;3.90;;;12.60;99.90;;;;;;4922318;28;21685;-87
2022/06/01 00:53:17;;;;;;;4.10;3.80;;;13.00;99.90;;;;;;4931095;28;20573;-88
2022/06/01 00:56:09;;;;;;;4.60;4.20;;;13.00;99.90;;;;;;4939271;28;20481;-86
2022/06/01 00:58:39;;;;;;;4.13;3.80;;;13.00;99.90;;;;;;4923229;28;20951;-88
2022/06/01 01:01:10;;;;;;;5.03;3.73;;;12.80;99.90;;;;;;4958673;28;20898;-88
2022/06/01 01:03:39;;;;;;;5.10;4.63;;;12.70;99.90;;;;;;4929880;28;21285;-87
2022/06/01 01:06:23;;;;;;;4.77;4.40;;;12.60;99.90;;;;;;4939642;28;20576;-88
2022/06/01 01:08:51;;;;;;;4.13;3.73;;;12.60;99.90;;;;;;4934724;28;20456;-88
2022/06/01 01:11:21;;;;;;;4.70;4.30;;;12.70;99.90;;;;;;4939630;28;20453;-88
2022/06/01 01:13:49;;;;;;;4.33;4.03;;;12.70;99.90;;;;;;4963245;28;20816;-87
2022/06/01 01:16:16;;;;;;;5.27;4.77;;;12.70;99.90;;;;;;4943197;28;20501;-88
2022/06/01 01:18:44;;;;;;;4.70;4.30;;;12.60;99.90;;;;;;4922479;28;20474;-88
2022/06/01 01:21:39;;;;;;;4.83;4.13;;;12.70;99.90;;;;;;4950839;28;20900;-87
2022/06/01 01:24:22;;;;;;;4.43;4.03;;;12.60;99.90;;;;;;4934185;28;20560;-87
2022/06/01 01:26:50;;;;;;;3.63;3.30;;;12.50;99.90;;;;;;4931758;28;20451;-88
2022/06/01 01:29:29;;;;;;;4.70;4.27;;;12.50;99.90;;;;;;4954978;28;20473;-88
2022/06/01 01:31:54;;;;;;;4.30;3.93;;;12.50;99.90;;;;;;4916613;28;20493;-87
2022/06/01 01:34:20;;;;;;;4.40;4.00;;;12.50;99.90;;;;;;4925337;28;20483;-88
2022/06/01 01:36:50;;;;;;;14.80;4.63;;;12.40;99.90;;;;;;4956615;28;20197;-88
2022/06/01 01:39:16;;;;;;;5.67;4.57;;;12.40;99.90;;;;;;4920666;28;20253;-87
2022/06/01 01:41:48;;;;;;;4.63;4.33;;;12.40;99.90;;;;;;4942333;28;20449;-88
2022/06/01 01:44:19;;;;;;;4.40;4.10;;;12.50;99.90;;;;;;4932394;28;20453;-88
2022/06/01 01:46:49;;;;;;;4.57;4.17;;;12.50;99.90;;;;;;4931282;28;20440;-87
2022/06/01 01:49:17;;;;;;;4.57;4.17;;;12.40;99.90;;;;;;4932212;28;20576;-87
2022/06/01 01:51:43;;;;;;;4.67;4.27;;;12.50;99.90;;;;;;4928568;28;20441;-87
2022/06/01 01:54:35;;;;;;;4.97;4.67;;;12.50;99.90;;;;;;4934118;28;20982;-87
2022/06/01 01:57:38;;;;;;;4.37;4.07;;;12.40;99.90;;;;;;4923114;28;20472;-87
2022/06/01 02:00:10;;;;;;;4.30;4.00;;;12.30;99.90;;;;;;4972445;28;20466;-88
2022/06/01 02:02:58;;;;;;;4.80;4.30;;;12.30;99.90;;;;;;4947438;28;20810;-87
2022/06/01 02:08:32;;;;;;;5.00;4.60;;;12.20;99.90;;;;;;4922785;28;20497;-88
2022/06/01 02:14:30;;;;;;;5.60;4.73;;;12.20;99.90;;;;;;4928323;28;20517;-88
2022/06/01 02:17:07;;;;;;;4.37;4.07;;;12.20;99.90;;;;;;4954106;28;20473;-88
2022/06/01 02:19:45;;;;;;;4.80;4.43;;;12.10;99.90;;;;;;4966578;28;20468;-88
2022/06/01 02:22:13;;;;;;;5.00;4.67;;;12.10;99.90;;;;;;4937758;28;20544;-88
2022/06/01 02:24:39;;;;;;;4.83;4.43;;;12.00;99.90;;;;;;4969726;28;20644;-88
2022/06/01 02:27:06;;;;;;;5.40;5.00;;;12.00;99.90;;;;;;4937270;28;21003;-88
2022/06/01 02:29:55;;;;;;;5.50;5.03;;;12.00;99.90;;;;;;4938983;28;20453;-88
2022/06/01 02:32:25;;;;;;;5.50;5.00;;;12.00;99.90;;;;;;4983718;28;20510;-88
2022/06/01 02:34:52;;;;;;;6.07;5.07;;;12.00;99.90;;;;;;4931888;28;20565;-89
2022/06/01 02:37:19;;;;;;;5.23;4.83;;;12.00;99.90;;;;;;4925719;28;21564;-88
2022/06/01 02:39:52;;;;;;;4.83;4.43;;;12.00;99.90;;;;;;4926011;28;20474;-88
2022/06/01 02:42:28;;;;;;;5.13;4.63;;;11.90;99.90;;;;;;4932048;28;20433;-88
2022/06/01 02:44:57;;;;;;;5.00;4.60;;;12.00;99.90;;;;;;4922656;28;20508;-88
2022/06/01 02:47:24;;;;;;;5.30;5.00;;;11.90;99.90;;;;;;4929090;28;20489;-87
2022/06/01 02:49:50;;;;;;;5.43;4.93;;;11.80;99.90;;;;;;4933239;28;20450;-87
2022/06/01 02:52:16;;;;;;;5.50;5.00;;;11.80;99.90;;;;;;4941510;28;20512;-87
2022/06/01 02:54:42;;;;;;;5.37;4.87;;;11.70;99.90;;;;;;4929552;28;20201;-88
2022/06/01 02:57:07;;;;;;;5.37;4.87;;;11.70;99.90;;;;;;4964085;28;20443;-88
2022/06/01 02:59:36;;;;;;;5.63;5.23;;;11.70;99.90;;;;;;4950400;28;20194;-88
2022/06/01 03:02:23;;;;;;;5.27;4.73;;;11.70;99.90;;;;;;4975510;28;20742;-88
2022/06/01 03:04:51;;;;;;;4.83;4.53;;;11.80;99.90;;;;;;4936593;28;21030;-88
2022/06/01 03:07:18;;;;;;;5.97;5.47;;;11.50;99.90;;;;;;4967656;28;20480;-88
2022/06/01 03:09:44;;;;;;;6.70;5.60;;;12.00;99.90;;;;;;4933934;28;20484;-88
2022/06/01 03:12:13;;;;;;;4.83;4.30;;;11.80;99.90;;;;;;4935258;28;22204;-87
2022/06/01 03:14:39;;;;;;;5.00;4.70;;;11.80;99.90;;;;;;4936207;28;22242;-88
2022/06/01 03:17:06;;;;;;;5.00;4.50;;;12.40;99.90;;;;;;4939512;28;20967;-88
2022/06/01 03:19:32;;;;;;;4.83;4.43;;;11.90;99.90;;;;;;4941407;28;20702;-88
2022/06/01 03:21:58;;;;;;;5.67;5.27;;;12.20;99.90;;;;;;4935329;28;20442;-88
2022/06/01 03:24:24;;;;;;;5.10;4.60;;;11.60;99.90;;;;;;4924448;28;20482;-89
2022/06/01 03:26:49;;;;;;;7.40;5.33;;;11.60;99.90;;;;;;4942680;28;20751;-88
2022/06/01 03:29:15;;;;;;;5.57;5.07;;;11.50;99.90;;;;;;4938880;28;20269;-89
2022/06/01 03:31:43;;;;;;;6.03;5.33;;;11.40;99.90;;;;;;4937697;28;20186;-88
2022/06/01 03:34:12;;;;;;;5.20;4.70;;;11.50;99.90;;;;;;4971779;28;20190;-88
2022/06/01 03:36:37;;;;;;;5.57;5.17;;;11.50;99.90;;;;;;4968809;28;20437;-89
2022/06/01 03:39:09;;;;;;;5.57;5.07;;;11.40;99.90;;;;;;4956928;28;20448;-89
2022/06/01 03:41:42;;;;;;;5.53;4.60;;;11.50;99.90;;;;;;4958398;28;20226;-88
2022/06/01 03:46:52;;;;;;;5.70;5.27;;;11.50;99.90;;;;;;4937364;28;20672;-88
2022/06/01 03:49:19;;;;;;;6.20;5.30;;;11.40;99.90;;;;;;4960146;28;21047;-88
2022/06/01 03:51:47;;;;;;;5.73;5.23;;;11.60;99.90;;;;;;4938554;28;20449;-88
2022/06/01 03:54:13;;;;;;;5.60;5.10;;;11.20;99.90;;;;;;4938823;28;20449;-88
2022/06/01 03:56:39;;;;;;;6.63;5.83;;;11.90;99.90;;;;;;4938046;28;20447;-88
2022/06/01 03:59:04;;;;;;;5.27;4.87;;;11.20;99.90;;;;;;4957961;28;20191;-88
2022/06/01 04:01:30;;;;;;;5.67;5.20;;;11.80;99.90;;;;;;4945273;28;20400;-88
2022/06/01 04:03:56;;;;;;;5.70;5.30;;;11.30;99.90;;;;;;4947263;28;20213;-88
2022/06/01 04:06:21;;;;;;;5.60;5.20;;;11.60;99.90;;;;;;4956522;28;20290;-88
2022/06/01 04:08:53;;;;;;;6.53;5.20;;;11.30;99.90;;;;;;4957299;28;20245;-89
2022/06/01 04:11:19;;;;;;;5.70;5.20;;;11.30;99.90;;;;;;4949070;28;20202;-88
2022/06/01 04:13:52;;;;;;;5.27;4.83;;;11.30;99.90;;;;;;4951632;28;20469;-88
2022/06/01 04:17:09;;;;;;;10.10;5.73;;;11.30;99.90;;;;;;4949640;28;20201;-89
2022/06/01 04:19:43;;;;;;;5.37;4.97;;;11.30;99.90;;;;;;4982162;28;20446;-88
2022/06/01 04:22:23;;;;;;;6.20;5.70;;;11.80;99.90;;;;;;4958334;28;20449;-88
2022/06/01 04:24:49;;;;;;;7.10;6.50;;;11.50;99.90;;;;;;4950194;28;20477;-88
2022/06/01 04:27:15;;;;;;;8.20;7.30;;;11.40;99.90;;;;;;4949627;28;20512;-89
2022/06/01 04:29:41;;;;;;;6.87;6.30;;;11.60;99.90;;;;;;4947753;28;21176;-87
2022/06/01 04:32:16;;;;;;;6.33;5.83;;;11.50;99.90;;;;;;4963932;28;20446;-86
2022/06/01 04:34:41;;;;;;;5.87;5.37;;;11.50;99.90;;;;;;4931232;28;21438;-86
2022/06/01 04:37:07;;;;;;;6.33;5.73;;;11.60;99.90;;;;;;4940195;28;20966;-86
2022/06/01 04:39:33;;;;;;;6.13;5.50;;;11.60;99.90;;;;;;4952389;28;20198;-87
2022/06/01 04:41:59;;;;;;;6.40;5.80;;;11.70;99.90;;;;;;4942700;28;20497;-87
2022/06/01 04:44:24;;;;;;;5.93;5.53;;;11.70;99.90;;;;;;4945773;28;20239;-88
2022/06/01 04:46:50;;;;;;;5.67;5.23;;;11.70;99.90;;;;;;4945344;28;20246;-87
2022/06/01 04:49:15;;;;;;;5.60;5.10;;;11.70;99.90;;;;;;4983426;28;20182;-87
2022/06/01 04:51:41;;;;;;;5.77;5.37;;;11.70;99.90;;;;;;4961706;28;20182;-87
2022/06/01 04:54:07;;;;;;;6.27;5.77;;;11.70;99.90;;;;;;4961838;28;20191;-87
2022/06/01 04:56:33;;;;;;;6.17;5.67;;;11.80;99.90;;;;;;4964449;28;20450;-87
2022/06/01 04:59:04;;;;;;;5.37;4.97;;;12.00;99.90;;;;;;4954828;28;20194;-86
2022/06/01 05:01:29;;;;;;;5.23;4.80;;;12.10;99.90;;;;;;4927274;28;20470;-86
2022/06/01 05:04:13;;;;;;;5.23;4.87;;;12.10;99.90;;;;;;4954440;28;20438;-86
2022/06/01 05:06:38;;;;;;;5.60;5.00;;;12.10;99.90;;;;;;4978171;28;20182;-88
2022/06/01 05:09:04;;;;;;;5.93;5.43;;;12.20;99.90;;;;;;4968928;28;21967;-87
2022/06/01 05:11:34;;;;;;;6.33;5.83;;;12.30;99.90;;;;;;4967129;28;20178;-85
2022/06/01 05:13:59;;;;;;;5.90;5.33;;;12.30;99.90;;;;;;4966142;28;20473;-88
2022/06/01 05:16:25;;;;;;;5.40;5.00;;;12.40;99.90;;;;;;4936992;28;20445;-87
2022/06/01 05:18:54;;;;;;;5.90;5.10;;;12.50;99.90;;;;;;4931439;28;20527;-87
2022/06/01 05:21:22;;;;;;;4.83;4.53;;;12.60;99.90;;;;;;4952209;28;20477;-87
2022/06/01 05:23:48;;;;;;;6.27;5.77;;;12.70;99.90;;;;;;4985239;28;20434;-86
2022/06/01 05:26:19;;;;;;;5.97;5.47;;;12.70;99.90;;;;;;4979479;28;20838;-87
2022/06/01 05:28:44;;;;;;;5.50;5.10;;;12.70;99.90;;;;;;4942772;28;20193;-87
2022/06/01 05:31:12;;;;;;;5.60;5.20;;;12.80;99.90;;;;;;4948931;28;20450;-87
2022/06/01 05:33:39;;;;;;;5.53;5.03;;;12.80;99.90;;;;;;4963657;28;20559;-86
2022/06/01 05:36:07;;;;;;;5.43;4.93;;;12.90;99.90;;;;;;4958885;28;21997;-86
2022/06/01 05:38:32;;;;;;;49.13;42.20;;;13.00;99.90;;;;;;4965341;28;20468;-87
2022/06/01 05:41:04;;;;;;;12.07;10.83;;;13.10;99.90;;;;;;4984684;28;20477;-88
2022/06/01 05:43:35;;;;;;;5.47;5.00;;;13.50;99.90;;;;;;4903291;28;20234;-86
2022/06/01 05:46:02;;;;;;;5.70;5.20;;;13.90;99.90;;;;;;4939042;28;20528;-87
2022/06/01 05:48:28;;;;;;;4.80;4.50;;;13.40;99.90;;;;;;4961657;28;20473;-87
2022/06/01 05:50:53;;;;;;;5.20;4.80;;;13.40;99.90;;;;;;4937656;28;20451;-86
2022/06/01 05:53:19;;;;;;;4.40;4.10;;;13.40;99.90;;;;;;4951413;28;20284;-88
2022/06/01 05:55:45;;;;;;;6.20;4.77;;;13.50;99.90;;;;;;4970003;28;20295;-87
2022/06/01 05:58:23;;;;;;;5.20;4.80;;;13.70;99.90;;;;;;4956856;28;20205;-88
2022/06/01 06:00:51;;;;;;;5.20;4.80;;;14.00;99.90;;;;;;4966360;28;21872;-87
2022/06/01 06:03:18;;;;;;;5.10;4.70;;;13.80;99.90;;;;;;4943545;28;20457;-86
2022/06/01 06:08:35;;;;;;;5.33;4.93;;;13.90;99.90;;;;;;4947882;28;20512;-90
2022/06/01 06:11:25;;;;;;;5.40;4.90;;;13.90;99.90;;;;;;4934721;28;20457;-88
2022/06/01 06:13:51;;;;;;;5.20;4.70;;;14.00;99.90;;;;;;4941378;28;21307;-89
2022/06/01 06:16:17;;;;;;;5.73;5.00;;;14.80;99.90;;;;;;4952335;28;20460;-90
2022/06/01 06:18:46;;;;;;;5.17;4.70;;;14.30;99.90;;;;;;4955543;28;20618;-88
2022/06/01 06:21:12;;;;;;;4.77;4.33;;;14.40;99.90;;;;;;4942786;28;21041;-89
2022/06/01 06:23:38;;;;;;;4.63;4.23;;;14.60;99.90;;;;;;4943304;28;20913;-88
2022/06/01 06:26:04;;;;;;;4.70;4.30;;;14.60;99.90;;;;;;4949047;28;20486;-89
2022/06/01 06:28:30;;;;;;;4.73;4.43;;;14.70;99.90;;;;;;4956500;28;20558;-89
2022/06/01 06:30:55;;;;;;;5.20;4.37;;;14.60;99.90;;;;;;4955292;28;20189;-89
2022/06/01 06:33:21;;;;;;;5.27;4.87;;;14.70;99.90;;;;;;4946656;28;20606;-88
2022/06/01 06:35:57;;;;;;;5.00;4.57;;;14.90;99.90;;;;;;4973666;28;20183;-87
2022/06/01 06:38:26;;;;;;;5.33;4.83;;;15.00;99.90;;;;;;4978564;28;20190;-88
2022/06/01 06:40:53;;;;;;;3.90;3.60;;;15.20;99.90;;;;;;4939722;28;20503;-88
2022/06/01 06:43:18;;;;;;;4.80;4.30;;;15.30;99.90;;;;;;4945919;28;20533;-87
2022/06/01 06:45:49;;;;;;;4.87;4.47;;;15.50;99.90;;;;;;4960229;28;22787;-89
2022/06/01 06:48:14;;;;;;;6.53;3.80;;;15.60;99.90;;;;;;4951651;28;20186;-88
2022/06/01 06:50:40;;;;;;;4.50;4.20;;;15.70;99.90;;;;;;4955011;28;22871;-89
2022/06/01 06:53:05;;;;;;;4.67;4.27;;;15.80;99.90;;;;;;4956411;28;20276;-89
2022/06/01 06:55:31;;;;;;;4.40;4.00;;;15.90;99.90;;;;;;4945649;28;20778;-87
2022/06/01 06:57:56;;;;;;;4.50;4.10;;;16.00;99.90;;;;;;4941750;28;20597;-86
2022/06/01 07:00:22;;;;;;;3.60;3.30;;;15.90;99.90;;;;;;4941508;28;20218;-90
2022/06/01 07:02:48;;;;;;;4.37;3.97;;;16.20;99.90;;;;;;4958095;28;20185;-88
2022/06/01 07:06:08;;;;;;;4.07;3.67;;;16.40;99.90;;;;;;4954752;28;20656;-88
2022/06/01 07:08:02;;;;;;;6.47;4.30;;;16.50;99.90;;;;;;4932633;28;20245;-88
2022/06/01 07:10:27;;;;;;;3.97;3.60;;;16.60;99.90;;;;;;4966747;28;20458;-90
2022/06/01 07:12:53;;;;;;;4.57;4.17;;;16.70;99.90;;;;;;4945234;28;20818;-89
2022/06/01 07:15:18;;;;;;;5.00;3.70;;;16.90;99.90;;;;;;4937712;28;20283;-89
2022/06/01 07:17:44;;;;;;;4.00;3.70;;;17.00;99.90;;;;;;4950303;28;20340;-88
2022/06/01 07:20:10;;;;;;;5.97;3.77;;;16.90;99.90;;;;;;4955339;28;20329;-89
2022/06/01 07:22:36;;;;;;;4.47;3.87;;;17.20;99.90;;;;;;4944227;28;20234;-88
2022/06/01 07:25:02;;;;;;;4.17;3.77;;;17.30;99.90;;;;;;4950948;28;21086;-90
2022/06/01 07:27:28;;;;;;;3.50;3.30;;;17.30;99.90;;;;;;4947640;28;20234;-87
2022/06/01 07:29:57;;;;;;;14.17;12.90;;;17.60;99.90;;;;;;4968941;28;20235;-88
2022/06/01 07:32:24;;;;;;;6.17;5.60;;;17.90;99.90;;;;;;4981487;28;21496;-88
2022/06/01 07:34:49;;;;;;;4.27;3.97;;;18.40;99.90;;;;;;4963846;28;20494;-88
2022/06/01 07:43:52;;;;;;;5.03;4.60;;;18.00;99.90;;;;;;4911306;29;21043;-88
2022/06/01 07:46:36;;;;;;;3.97;3.57;;;18.20;99.90;;;;;;4894680;29;20994;-88
2022/06/01 07:49:02;;;;;;;3.40;3.20;;;18.30;99.90;;;;;;4904691;29;20556;-88
2022/06/01 07:51:28;;;;;;;3.27;3.07;;;18.30;99.90;;;;;;4916801;28;20504;-88
2022/06/01 07:53:53;;;;;;;3.80;3.40;;;18.60;99.90;;;;;;4940753;28;20677;-88
2022/06/01 07:56:19;;;;;;;2.90;2.70;;;18.40;99.60;;;;;;4953939;28;20654;-86
2022/06/01 07:58:44;;;;;;;4.80;3.17;;;19.00;99.80;;;;;;4951956;28;20187;-86
2022/06/01 08:01:10;;;;;;;2.90;2.70;;;18.90;99.90;;;;;;4944605;28;20191;-87
2022/06/01 08:03:36;;;;;;;2.90;2.70;;;18.90;99.50;;;;;;4934840;28;20245;-86
2022/06/01 08:06:02;;;;;;;3.43;2.87;;;18.80;98.70;;;;;;4937009;28;20959;-87
2022/06/01 08:08:28;;;;;;;3.30;3.00;;;19.10;97.20;;;;;;4926752;28;20712;-87
2022/06/01 08:10:53;;;;;;;3.50;3.20;;;19.40;96.20;;;;;;4957904;28;20827;-86
2022/06/01 08:13:19;;;;;;;3.47;2.77;;;19.30;95.50;;;;;;4969919;28;20597;-86
2022/06/01 08:15:48;;;;;;;2.63;2.50;;;19.20;95.00;;;;;;4971147;28;20244;-87
2022/06/01 08:18:17;;;;;;;2.50;2.40;;;19.70;94.70;;;;;;4954959;28;20478;-86
2022/06/01 08:20:43;;;;;;;2.67;2.40;;;19.30;93.50;;;;;;4948685;28;20461;-88
2022/06/01 08:23:10;;;;;;;3.80;2.40;;;19.60;93.40;;;;;;4956283;28;20455;-87
2022/06/01 08:25:45;;;;;;;2.43;2.23;;;20.20;93.50;;;;;;4908021;28;21236;-86
2022/06/01 08:28:11;;;;;;;2.77;2.30;;;20.10;91.00;;;;;;4947530;28;20456;-86
2022/06/01 08:30:38;;;;;;;2.50;2.30;;;20.50;90.70;;;;;;4947586;28;20497;-86
2022/06/01 08:33:05;;;;;;;2.30;2.10;;;20.10;91.00;;;;;;4955457;28;20186;-86
2022/06/01 08:35:36;;;;;;;2.03;1.93;;;20.10;90.50;;;;;;4933311;28;20516;-86
2022/06/01 08:38:02;;;;;;;2.60;2.40;;;20.30;87.90;;;;;;4926117;28;20697;-85
2022/06/01 08:40:46;;;;;;;1.93;1.83;;;20.30;87.30;;;;;;4937919;28;20455;-86
2022/06/01 08:43:15;;;;;;;2.73;2.53;;;20.60;90.20;;;;;;4962107;28;24036;-86
2022/06/01 08:45:48;;;;;;;3.60;3.00;;;20.60;90.30;;;;;;4932267;28;20490;-86
2022/06/01 08:48:20;;;;;;;2.23;2.13;;;21.30;91.00;;;;;;4933757;28;20453;-87
2022/06/01 08:50:47;;;;;;;2.40;2.20;;;20.80;86.50;;;;;;4937611;28;20478;-87
2022/06/01 08:53:13;;;;;;;3.40;2.00;;;20.90;82.00;;;;;;4943322;28;20461;-87
2022/06/01 08:55:56;;;;;;;2.77;1.80;;;20.50;77.80;;;;;;4927108;28;20547;-88
2022/06/01 08:58:46;;;;;;;2.67;1.60;;;21.00;78.90;;;;;;4930318;28;20226;-88
2022/06/01 09:01:37;;;;;;;3.67;2.07;;;20.60;77.50;;;;;;4927362;28;20446;-88
2022/06/01 09:04:11;;;;;;;2.20;1.97;;;20.90;79.00;;;;;;4941230;28;20449;-88
2022/06/01 09:06:47;;;;;;;2.10;2.00;;;20.50;78.40;;;;;;4939967;28;21899;-86
2022/06/01 09:09:40;;;;;;;2.40;2.20;;;20.40;80.80;;;;;;4934141;28;21243;-87
2022/06/01 09:12:06;;;;;;;2.10;1.93;;;20.70;83.10;;;;;;4959563;28;21495;-87
2022/06/01 09:14:37;;;;;;;1.77;1.67;;;21.00;78.90;;;;;;4931796;28;23321;-86
2022/06/01 09:17:03;;;;;;;2.00;1.90;;;21.20;78.60;;;;;;4965270;28;20500;-87
2022/06/01 09:25:14;;;;;;;2.90;2.13;;;22.50;76.30;;;;;;4923689;28;20525;-87
2022/06/01 09:27:41;;;;;;;2.13;2.03;;;21.80;74.60;;;;;;4933595;28;20450;-87
2022/06/01 09:30:21;;;;;;;2.37;2.27;;;21.80;77.60;;;;;;4952876;28;20533;-86
2022/06/01 09:33:02;;;;;;;2.57;2.40;;;20.70;78.20;;;;;;4935359;28;20453;-89
2022/06/01 09:35:38;;;;;;;2.53;2.33;;;20.70;80.00;;;;;;4950170;28;20878;-85
2022/06/01 09:38:34;;;;;;;4.63;2.40;;;20.90;80.00;;;;;;4939166;28;20485;-86
2022/06/01 09:41:08;;;;;;;2.57;1.93;;;21.20;76.80;;;;;;4938461;28;21047;-87
2022/06/01 09:43:37;;;;;;;2.80;1.93;;;21.90;75.60;;;;;;4976959;28;20771;-87
2022/06/01 09:46:02;;;;;;;2.37;2.13;;;21.10;75.10;;;;;;4964530;28;20489;-86
2022/06/01 09:48:34;;;;;;;2.70;2.03;;;20.60;75.30;;;;;;4939704;28;21152;-86
2022/06/01 09:51:06;;;;;;;1.77;1.67;;;21.00;75.90;;;;;;4934552;28;20194;-87
2022/06/01 09:53:40;;;;;;;5.33;1.93;;;21.10;75.30;;;;;;4936961;28;20536;-87
2022/06/01 09:56:06;;;;;;;2.53;1.63;;;20.70;73.40;;;;;;4968681;28;21079;-87
2022/06/01 10:07:00;;;;;;;2.20;1.80;;;21.50;68.80;;;;;;4927651;28;20536;-86
2022/06/01 10:09:32;;;;;;;2.23;1.97;;;22.00;70.90;;;;;;4952154;28;20453;-86
2022/06/01 10:11:58;;;;;;;6.07;1.57;;;22.00;68.30;;;;;;4932373;28;20478;-87
2022/06/01 10:14:39;;;;;;;4.67;1.83;;;22.40;67.20;;;;;;4942176;28;20501;-87
2022/06/01 10:17:23;;;;;;;2.93;1.67;;;22.70;66.70;;;;;;4947800;28;20498;-85
2022/06/01 10:19:57;;;;;;;2.00;1.90;;;22.50;64.60;;;;;;4948641;28;20493;-87
2022/06/01 10:23:04;;;;;;;5.83;4.60;;;22.70;65.50;;;;;;4964154;28;20437;-87
2022/06/01 10:25:57;;;;;;;1.90;1.80;;;22.90;64.20;;;;;;4937827;28;21055;-86
2022/06/01 10:28:33;;;;;;;1.70;1.60;;;22.00;62.20;;;;;;4941599;28;20525;-86
2022/06/01 10:31:01;;;;;;;1.80;1.60;;;22.00;62.90;;;;;;4949502;28;20433;-86
2022/06/01 10:33:43;;;;;;;1.50;1.40;;;22.60;62.20;;;;;;4933395;28;21037;-85
2022/06/01 10:36:16;;;;;;;3.50;1.57;;;21.60;62.60;;;;;;4942099;28;20489;-86
2022/06/01 10:39:23;;;;;;;1.73;1.63;;;21.60;63.50;;;;;;4955512;28;20452;-86
2022/06/01 10:42:07;;;;;;;2.37;1.80;;;21.80;62.00;;;;;;4929337;28;20452;-86
2022/06/01 10:44:41;;;;;;;2.00;1.67;;;21.80;60.10;;;;;;4962876;28;20442;-87
2022/06/01 10:47:15;;;;;;;2.17;1.90;;;21.60;60.60;;;;;;4942986;28;20445;-86
2022/06/01 10:50:05;;;;;;;1.60;1.50;;;21.70;62.00;;;;;;4955728;28;20568;-86
2022/06/01 10:52:38;;;;;;;2.00;1.67;;;22.00;59.60;;;;;;4935853;28;20450;-86
2022/06/01 10:55:26;;;;;;;1.27;1.17;;;21.60;60.50;;;;;;4954808;28;20535;-86
2022/06/01 10:57:57;;;;;;;1.70;1.60;;;21.70;61.00;;;;;;4941912;28;20840;-90
2022/06/01 11:00:30;;;;;;;2.20;1.80;;;22.10;59.70;;;;;;4943785;28;20458;-89
2022/06/01 11:03:13;;;;;;;1.47;1.37;;;22.50;59.10;;;;;;4913821;28;20497;-87
2022/06/01 11:05:57;;;;;;;1.40;1.30;;;22.70;59.30;;;;;;4957304;28;20514;-90
2022/06/01 11:08:32;;;;;;;1.60;1.50;;;22.80;59.40;;;;;;4961995;28;20445;-89
2022/06/01 11:11:14;;;;;;;1.63;1.53;;;22.30;58.50;;;;;;4959448;28;21257;-89
2022/06/01 11:14:18;;;;;;;2.07;1.47;;;22.10;58.10;;;;;;4945169;28;20489;-86
2022/06/01 11:16:57;;;;;;;2.50;1.60;;;22.20;59.00;;;;;;4977109;28;20817;-86
2022/06/01 11:19:29;;;;;;;1.60;1.50;;;22.10;59.10;;;;;;4936118;28;20501;-88
2022/06/01 11:21:57;;;;;;;2.20;1.87;;;22.50;59.20;;;;;;4945598;28;21170;-86
2022/06/01 11:24:46;;;;;;;2.57;1.43;;;22.90;58.60;;;;;;4952169;28;21679;-88
2022/06/01 11:27:56;;;;;;;1.60;1.50;;;22.70;56.80;;;;;;4937604;28;20472;-84
2022/06/01 11:30:25;;;;;;;3.73;1.50;;;22.30;57.50;;;;;;4962309;28;20445;-84
2022/06/01 11:32:53;;;;;;;2.27;1.40;;;22.70;56.20;;;;;;4938850;28;20445;-85
2022/06/01 11:35:28;;;;;;;1.60;1.50;;;22.80;56.30;;;;;;4944973;28;20881;-84
2022/06/01 11:38:05;;;;;;;2.77;2.00;;;22.80;57.50;;;;;;4935992;28;20963;-83
2022/06/01 11:41:05;;;;;;;1.93;1.47;;;22.50;56.20;;;;;;4953604;28;21261;-85
2022/06/01 11:44:13;;;;;;;1.63;1.53;;;22.10;56.50;;;;;;4926537;28;21045;-87
2022/06/01 11:46:55;;;;;;;2.17;1.60;;;21.90;56.70;;;;;;4941855;28;20785;-84
2022/06/01 11:49:42;;;;;;;1.47;1.37;;;22.00;55.40;;;;;;4955930;28;20461;-85
2022/06/01 11:52:41;;;;;;;2.20;1.60;;;22.00;56.20;;;;;;4949685;28;20456;-86
2022/06/01 11:55:21;;;;;;;1.60;1.50;;;22.00;56.90;;;;;;4974767;28;20588;-85
2022/06/01 11:57:50;;;;;;;1.70;1.60;;;22.00;56.70;;;;;;4935697;28;21417;-85
2022/06/01 12:00:21;;;;;;;2.00;1.90;;;22.10;57.10;;;;;;4929553;28;20512;-87
2022/06/01 12:02:50;;;;;;;2.07;1.83;;;21.90;57.90;;;;;;4946375;28;21873;-88
2022/06/01 12:05:32;;;;;;;1.50;1.40;;;22.00;56.70;;;;;;4973203;28;20483;-89
2022/06/01 12:07:57;;;;;;;2.17;1.77;;;22.10;55.20;;;;;;4948289;28;20828;-88
2022/06/01 12:10:28;;;;;;;1.50;1.40;;;22.30;55.40;;;;;;4947378;28;20454;-89
2022/06/01 12:13:18;;;;;;;1.90;1.70;;;22.50;54.10;;;;;;4938168;28;20191;-88
2022/06/01 12:16:03;;;;;;;1.50;1.40;;;22.80;55.40;;;;;;4935136;28;20676;-88
2022/06/01 12:18:29;;;;;;;1.73;1.63;;;23.20;54.10;;;;;;4927354;28;20800;-90
2022/06/01 12:21:17;;;;;;;1.70;1.60;;;23.70;55.00;;;;;;4944706;28;21248;-90
2022/06/01 12:29:38;;;;;;;2.27;2.07;;;25.10;52.00;;;;;;4937085;28;20440;-89
2022/06/01 12:32:04;;;;;;;1.70;1.60;;;24.90;49.10;;;;;;4941090;28;20458;-89
2022/06/01 12:34:35;;;;;;;2.63;1.40;;;24.80;49.60;;;;;;4959747;28;20545;-88
2022/06/01 12:37:23;;;;;;;3.30;1.60;;;24.70;50.50;;;;;;4925157;28;20190;-88
2022/06/01 12:40:13;;;;;;;3.77;1.70;;;25.20;52.60;;;;;;4928133;28;20461;-89
2022/06/01 12:42:44;;;;;;;1.50;1.40;;;26.00;50.60;;;;;;4925623;28;21142;-89
2022/06/01 12:45:18;;;;;;;1.53;1.43;;;25.90;49.60;;;;;;4932628;28;20446;-89
2022/06/01 12:47:55;;;;;;;3.70;1.90;;;25.30;48.40;;;;;;4954360;28;21054;-88
2022/06/01 12:50:23;;;;;;;2.07;1.37;;;25.20;49.90;;;;;;4960031;28;20452;-89
2022/06/01 12:53:08;;;;;;;1.50;1.40;;;25.40;48.60;;;;;;4974554;28;20574;-88
2022/06/01 12:55:34;;;;;;;2.07;1.73;;;25.40;49.40;;;;;;4944636;28;20844;-88
2022/06/01 12:57:59;;;;;;;2.23;1.20;;;25.10;49.20;;;;;;4934634;28;20446;-89
2022/06/01 13:00:31;;;;;;;1.80;1.70;;;24.60;49.80;;;;;;4951348;28;20178;-89
2022/06/01 13:02:57;;;;;;;2.50;1.60;;;24.20;50.30;;;;;;4967367;28;20183;-88
2022/06/01 13:05:26;;;;;;;1.70;1.60;;;24.40;51.10;;;;;;4950478;28;20449;-89
2022/06/01 13:07:59;;;;;;;1.90;1.80;;;23.80;50.80;;;;;;4946668;28;20461;-89
2022/06/01 13:10:30;;;;;;;1.97;1.80;;;24.10;51.10;;;;;;4946879;28;22514;-88
2022/06/01 13:13:14;;;;;;;2.03;1.70;;;24.60;51.20;;;;;;4942384;28;21025;-89
2022/06/01 13:16:04;;;;;;;2.07;1.97;;;25.00;51.10;;;;;;4932547;28;20556;-88
2022/06/01 13:18:38;;;;;;;2.20;1.67;;;25.30;50.30;;;;;;4959892;28;20461;-88
2022/06/01 13:21:10;;;;;;;3.73;1.63;;;25.30;50.60;;;;;;4980744;28;21161;-88
2022/06/01 13:23:54;;;;;;;2.40;1.80;;;25.80;50.60;;;;;;4959941;28;21355;-89
2022/06/01 13:26:32;;;;;;;2.27;1.70;;;25.00;49.00;;;;;;4946462;28;20560;-89
2022/06/01 13:29:26;;;;;;;3.77;1.90;;;24.40;50.90;;;;;;4941761;28;21656;-88
2022/06/01 13:32:00;;;;;;;1.90;1.77;;;24.00;52.00;;;;;;4943701;28;20453;-87
2022/06/01 13:34:31;;;;;;;2.70;1.83;;;24.10;51.70;;;;;;4934804;28;20805;-88
2022/06/01 13:37:09;;;;;;;1.90;1.80;;;24.80;52.20;;;;;;4953734;28;20456;-87
2022/06/01 13:39:39;;;;;;;2.13;1.83;;;24.60;51.60;;;;;;4958685;28;20449;-87
2022/06/01 13:42:05;;;;;;;2.30;1.90;;;25.00;51.50;;;;;;4933260;28;20437;-87
2022/06/01 13:44:51;;;;;;;2.30;2.13;;;25.30;50.80;;;;;;4952990;28;20459;-88
2022/06/01 13:47:26;;;;;;;2.00;1.90;;;25.10;50.50;;;;;;4934248;28;21172;-88
2022/06/01 13:50:02;;;;;;;2.70;2.10;;;24.90;50.60;;;;;;4930628;28;20969;-87